createdAt,value
2022-08-29T00:03:02.019Z,5.47
2022-08-29T00:06:26.521Z,5.13
2022-08-29T00:09:40.602Z,5.22
2022-08-29T00:13:04.684Z,5.32
2022-08-29T00:16:18.671Z,6.45
2022-08-29T00:19:38.350Z,6.85
2022-08-29T00:22:58.393Z,6.82
2022-08-29T00:26:05.627Z,6.13
2022-08-29T00:29:12.625Z,6.07
2022-08-29T00:32:19.095Z,6.15
2022-08-29T00:35:30.378Z,5.85
2022-08-29T00:38:42.683Z,5.05
2022-08-29T00:41:53.209Z,4.82
2022-08-29T00:45:00.905Z,5.13
2022-08-29T00:48:11.938Z,5.30
2022-08-29T00:51:25.118Z,5.40
2022-08-29T00:54:35.024Z,5.72
2022-08-29T00:57:46.970Z,5.40
2022-08-29T01:00:55.383Z,4.60
2022-08-29T01:04:01.272Z,5.45
2022-08-29T01:07:07.636Z,5.30
2022-08-29T01:10:36.576Z,5.38
2022-08-29T01:13:45.852Z,5.28
2022-08-29T01:16:54.781Z,5.55
2022-08-29T01:20:09.104Z,5.97
2022-08-29T01:23:18.537Z,5.90
2022-08-29T01:26:33.029Z,5.57
2022-08-29T01:29:59.354Z,6.30
2022-08-29T01:33:14.769Z,5.80
2022-08-29T01:40:21.420Z,5.22
2022-08-29T01:43:36.628Z,6.15
2022-08-29T01:47:06.039Z,5.40
2022-08-29T01:50:31.644Z,6.47
2022-08-29T01:53:45.382Z,6.57
2022-08-29T01:57:01.096Z,6.13
2022-08-29T02:00:24.155Z,5.88
2022-08-29T02:03:44.629Z,6.38
2022-08-29T02:06:57.147Z,5.43
2022-08-29T02:10:02.824Z,6.43
2022-08-29T02:13:17.083Z,6.43
2022-08-29T02:16:41.244Z,5.60
2022-08-29T02:19:56.029Z,5.60
2022-08-29T02:23:30.278Z,4.97
2022-08-29T02:26:43.738Z,5.30
2022-08-29T02:29:53.643Z,4.82
2022-08-29T02:33:07.060Z,5.88
2022-08-29T02:36:21.634Z,5.40
2022-08-29T02:39:39.270Z,5.50
2022-08-29T02:42:44.365Z,5.18
2022-08-29T02:45:49.904Z,6.32
2022-08-29T02:49:28.956Z,5.50
2022-08-29T02:52:39.670Z,5.15
2022-08-29T02:55:47.193Z,6.18
2022-08-29T02:58:55.132Z,5.00
2022-08-29T03:02:00.495Z,4.45
2022-08-29T03:05:15.343Z,5.20
2022-08-29T03:08:32.630Z,5.07
2022-08-29T03:11:43.616Z,4.97
2022-08-29T03:14:50.703Z,4.40
2022-08-29T03:17:55.785Z,4.80
2022-08-29T03:21:00.525Z,5.00
2022-08-29T03:24:03.654Z,4.72
2022-08-29T03:27:06.553Z,5.15
2022-08-29T03:30:12.458Z,4.80
2022-08-29T03:33:15.209Z,4.85
2022-08-29T03:36:19.971Z,5.18
2022-08-29T03:39:22.693Z,5.10
2022-08-29T03:42:26.006Z,5.28
2022-08-29T03:45:29.577Z,4.97
2022-08-29T03:48:33.253Z,5.35
2022-08-29T03:51:39.870Z,4.60
2022-08-29T03:54:42.731Z,4.93
2022-08-29T03:57:45.585Z,4.93
2022-08-29T04:00:48.288Z,4.82
2022-08-29T04:03:51.335Z,5.35
2022-08-29T04:06:57.109Z,4.65
2022-08-29T04:10:01.651Z,5.07
2022-08-29T04:13:10.123Z,5.15
2022-08-29T04:16:18.108Z,4.88
2022-08-29T04:19:22.703Z,5.55
2022-08-29T04:22:26.852Z,5.63
2022-08-29T04:25:37.309Z,5.53
2022-08-29T04:28:40.532Z,4.63
2022-08-29T04:31:50.589Z,4.93
2022-08-29T04:34:57.281Z,5.30
2022-08-29T04:38:18.092Z,4.72
2022-08-29T04:41:22.875Z,4.45
2022-08-29T04:44:25.595Z,4.45
2022-08-29T04:47:28.308Z,4.55
2022-08-29T04:50:31.582Z,4.50
2022-08-29T04:53:36.431Z,4.72
2022-08-29T04:56:44.346Z,4.38
2022-08-29T04:59:55.197Z,4.47
2022-08-29T05:02:58.083Z,3.95
2022-08-29T05:06:03.176Z,4.45
2022-08-29T05:09:07.260Z,5.00
2022-08-29T05:12:10.444Z,4.53
2022-08-29T05:15:14.354Z,4.35
2022-08-29T05:18:18.493Z,4.38
2022-08-29T05:21:27.038Z,4.45
2022-08-29T05:24:31.701Z,4.53
2022-08-29T05:27:34.921Z,4.40
2022-08-29T05:30:38.706Z,4.75
2022-08-29T05:33:41.718Z,5.90
2022-08-29T05:36:45.190Z,4.25
2022-08-29T05:39:52.401Z,4.57
2022-08-29T05:42:55.169Z,4.75
2022-08-29T05:46:03.664Z,5.28
2022-08-29T05:49:06.578Z,5.28
2022-08-29T05:52:10.627Z,4.68
2022-08-29T05:55:14.848Z,5.20
2022-08-29T05:58:18.311Z,5.15
2022-08-29T06:01:26.033Z,5.45
2022-08-29T06:04:29.229Z,5.03
2022-08-29T06:07:33.129Z,5.40
2022-08-29T06:10:41.552Z,5.15
2022-08-29T06:13:44.542Z,4.97
2022-08-29T06:16:47.322Z,6.32
2022-08-29T06:19:52.403Z,5.55
2022-08-29T06:22:55.337Z,4.63
2022-08-29T06:26:00.176Z,4.68
2022-08-29T06:29:06.471Z,4.72
2022-08-29T06:32:09.300Z,4.70
2022-08-29T06:35:12.193Z,4.38
2022-08-29T06:38:15.448Z,4.43
2022-08-29T06:41:20.859Z,4.07
2022-08-29T06:44:23.870Z,4.18
2022-08-29T06:47:26.657Z,3.90
2022-08-29T06:50:29.397Z,3.72
2022-08-29T06:53:32.848Z,3.90
2022-08-29T06:56:38.274Z,4.60
2022-08-29T06:59:41.209Z,4.45
2022-08-29T07:02:44.028Z,3.35
2022-08-29T07:05:55.072Z,4.00
2022-08-29T07:08:58.812Z,4.70
2022-08-29T07:12:03.588Z,4.75
2022-08-29T07:15:07.369Z,5.10
2022-08-29T07:18:10.109Z,5.50
2022-08-29T07:21:20.122Z,4.95
2022-08-29T07:24:25.008Z,4.15
2022-08-29T07:27:29.267Z,4.70
2022-08-29T07:30:32.948Z,4.70
2022-08-29T07:33:35.960Z,4.50
2022-08-29T07:36:39.745Z,4.93
2022-08-29T07:39:42.465Z,4.95
2022-08-29T07:42:46.614Z,4.72
2022-08-29T07:45:49.388Z,4.85
2022-08-29T07:48:53.551Z,4.40
2022-08-29T07:51:56.726Z,4.82
2022-08-29T07:54:59.545Z,4.82
2022-08-29T07:58:04.779Z,4.40
2022-08-29T08:01:08.189Z,4.68
2022-08-29T08:04:15.386Z,4.15
2022-08-29T08:07:18.767Z,4.65
2022-08-29T08:10:22.113Z,5.22
2022-08-29T08:13:27.925Z,5.70
2022-08-29T08:16:31.812Z,4.90
2022-08-29T08:19:34.555Z,4.82
2022-08-29T08:22:38.286Z,4.85
2022-08-29T08:25:41.030Z,4.97
2022-08-29T08:28:45.738Z,4.45
2022-08-29T08:31:51.650Z,4.18
2022-08-29T08:34:54.431Z,4.63
2022-08-29T08:37:57.559Z,5.20
2022-08-29T08:41:07.170Z,4.55
2022-08-29T08:44:29.691Z,4.25
2022-08-29T08:47:40.479Z,4.20
2022-08-29T08:50:52.417Z,4.43
2022-08-29T08:54:00.358Z,5.30
2022-08-29T08:57:08.004Z,5.18
2022-08-29T09:00:13.395Z,4.60
2022-08-29T09:03:46.698Z,5.70
2022-08-29T09:07:04.477Z,5.57
2022-08-29T09:10:23.702Z,6.40
2022-08-29T09:13:38.492Z,5.32
2022-08-29T09:16:47.637Z,5.32
2022-08-29T09:19:51.849Z,4.70
2022-08-29T09:23:00.688Z,4.60
2022-08-29T09:26:03.497Z,5.50
2022-08-29T09:29:09.839Z,5.45
2022-08-29T09:32:20.156Z,4.85
2022-08-29T09:35:29.391Z,5.05
2022-08-29T09:38:32.130Z,4.97
2022-08-29T09:41:34.978Z,4.50
2022-08-29T09:44:38.520Z,5.18
2022-08-29T09:47:42.659Z,4.07
2022-08-29T09:50:45.669Z,3.70
2022-08-29T09:53:49.159Z,3.88
2022-08-29T09:56:59.865Z,4.85
2022-08-29T10:00:13.467Z,4.03
2022-08-29T10:03:24.604Z,4.50
2022-08-29T10:06:29.908Z,4.28
2022-08-29T10:09:32.712Z,4.38
2022-08-29T10:12:46.897Z,4.60
2022-08-29T10:15:55.423Z,4.63
2022-08-29T10:19:02.833Z,5.53
2022-08-29T10:22:18.721Z,4.82
2022-08-29T10:25:29.823Z,5.43
2022-08-29T10:28:39.436Z,4.20
2022-08-29T10:31:47.906Z,4.22
2022-08-29T10:35:05.708Z,4.35
2022-08-29T10:38:16.395Z,4.30
2022-08-29T10:41:32.098Z,4.47
2022-08-29T10:44:41.273Z,4.78
2022-08-29T10:47:53.270Z,4.63
2022-08-29T10:51:11.761Z,5.18
2022-08-29T10:54:33.353Z,3.92
2022-08-29T10:57:47.194Z,4.40
2022-08-29T11:00:56.435Z,4.30
2022-08-29T11:04:09.709Z,4.10
2022-08-29T11:07:18.800Z,3.35
2022-08-29T11:10:26.990Z,3.78
2022-08-29T11:13:36.055Z,3.97
2022-08-29T11:16:45.267Z,3.78
2022-08-29T11:19:58.929Z,3.35
2022-08-29T11:23:09.638Z,3.60
2022-08-29T11:26:20.052Z,3.72
2022-08-29T11:29:33.260Z,3.53
2022-08-29T11:32:45.359Z,3.58
2022-08-29T11:36:05.021Z,3.42
2022-08-29T11:39:46.910Z,3.20
2022-08-29T11:42:52.438Z,3.40
2022-08-29T11:45:59.413Z,3.53
2022-08-29T11:49:27.173Z,2.75
2022-08-29T11:52:31.392Z,2.90
2022-08-29T11:55:37.914Z,3.20
2022-08-29T11:58:46.383Z,3.10
2022-08-29T12:02:01.813Z,3.10
2022-08-29T12:05:06.672Z,3.45
2022-08-29T12:08:36.028Z,3.35
2022-08-29T12:12:28.434Z,3.33
2022-08-29T12:15:54.708Z,3.20
2022-08-29T12:18:59.918Z,3.30
2022-08-29T12:22:02.756Z,2.92
2022-08-29T12:25:30.846Z,3.15
2022-08-29T12:28:44.444Z,3.05
2022-08-29T12:32:23.069Z,3.40
2022-08-29T12:35:46.500Z,3.03
2022-08-29T12:39:05.479Z,3.25
2022-08-29T12:42:22.035Z,3.15
2022-08-29T12:45:27.782Z,3.17
2022-08-29T12:48:37.880Z,2.72
2022-08-29T12:51:52.430Z,3.20
2022-08-29T12:54:56.841Z,2.72
2022-08-29T12:58:00.003Z,2.60
2022-08-29T13:01:03.971Z,3.35
2022-08-29T13:04:14.739Z,3.25
2022-08-29T13:07:19.826Z,3.00
2022-08-29T13:10:23.285Z,3.30
2022-08-29T13:13:26.815Z,2.80
2022-08-29T13:16:32.000Z,2.97
2022-08-29T13:19:35.038Z,3.10
2022-08-29T13:22:39.136Z,2.85
2022-08-29T13:25:51.305Z,2.95
2022-08-29T13:28:56.196Z,3.00
2022-08-29T13:32:27.445Z,2.45
2022-08-29T13:35:32.825Z,3.03
2022-08-29T13:38:36.934Z,3.22
2022-08-29T13:41:39.691Z,3.10
2022-08-29T13:44:59.112Z,3.00
2022-08-29T13:48:20.246Z,3.50
2022-08-29T13:51:22.934Z,2.88
2022-08-29T13:54:30.800Z,2.95
2022-08-29T13:57:34.710Z,3.40
2022-08-29T14:00:37.924Z,3.05
2022-08-29T14:03:41.145Z,3.20
2022-08-29T14:06:44.028Z,2.92
2022-08-29T14:09:48.618Z,3.15
2022-08-29T14:12:51.480Z,3.10
2022-08-29T14:15:54.454Z,3.17
2022-08-29T14:18:57.253Z,3.22
2022-08-29T14:22:00.503Z,3.50
2022-08-29T14:25:05.712Z,3.30
2022-08-29T14:28:09.409Z,3.30
2022-08-29T14:31:16.077Z,3.30
2022-08-29T14:34:19.125Z,3.33
2022-08-29T14:37:21.878Z,3.17
2022-08-29T14:40:29.111Z,3.85
2022-08-29T14:43:34.282Z,3.00
2022-08-29T14:46:40.487Z,3.60
2022-08-29T14:49:43.366Z,3.38
2022-08-29T14:52:46.229Z,3.53
2022-08-29T14:55:50.344Z,3.15
2022-08-29T14:58:53.094Z,3.45
2022-08-29T15:01:56.018Z,3.50
2022-08-29T15:04:59.268Z,3.33
2022-08-29T15:08:06.355Z,3.10
2022-08-29T15:11:11.765Z,3.33
2022-08-29T15:14:14.805Z,3.10
2022-08-29T15:17:17.686Z,3.13
2022-08-29T15:20:40.145Z,3.10
2022-08-29T15:23:47.552Z,3.22
2022-08-29T15:26:54.033Z,3.40
2022-08-29T15:29:59.801Z,2.95
2022-08-29T15:33:05.435Z,3.30
2022-08-29T15:36:10.571Z,3.35
2022-08-29T15:39:15.647Z,3.50
2022-08-29T15:42:24.588Z,3.10
2022-08-29T15:45:31.911Z,3.10
2022-08-29T15:48:36.967Z,3.28
2022-08-29T15:51:41.737Z,3.17
2022-08-29T15:54:47.322Z,3.25
2022-08-29T15:57:54.397Z,3.08
2022-08-29T16:00:59.749Z,2.78
2022-08-29T16:04:05.799Z,3.05
2022-08-29T16:07:13.195Z,2.95
2022-08-29T16:10:19.991Z,3.42
2022-08-29T16:13:26.508Z,3.20
2022-08-29T16:16:31.615Z,2.88
2022-08-29T16:19:38.223Z,3.17
2022-08-29T16:22:44.830Z,2.88
2022-08-29T16:25:50.316Z,3.17
2022-08-29T16:28:56.770Z,2.60
2022-08-29T16:32:01.986Z,3.35
2022-08-29T16:35:07.743Z,3.13
2022-08-29T16:38:13.145Z,3.00
2022-08-29T16:41:21.962Z,2.70
2022-08-29T16:44:28.381Z,3.20
2022-08-29T16:47:33.400Z,3.08
2022-08-29T16:50:40.488Z,3.25
2022-08-29T16:53:46.258Z,3.30
2022-08-29T16:56:51.370Z,3.08
2022-08-29T16:59:57.768Z,3.10
2022-08-29T17:03:02.683Z,3.25
2022-08-29T17:06:08.038Z,3.47
2022-08-29T17:09:11.208Z,3.38
2022-08-29T17:12:14.834Z,3.15
2022-08-29T17:15:21.023Z,3.17
2022-08-29T17:18:26.010Z,2.65
2022-08-29T17:21:32.373Z,3.78
2022-08-29T17:24:38.935Z,3.28
2022-08-29T17:28:00.823Z,3.30
2022-08-29T17:31:11.409Z,3.47
2022-08-29T17:34:16.772Z,3.22
2022-08-29T17:37:21.871Z,3.10
2022-08-29T17:40:27.653Z,2.78
2022-08-29T17:43:33.470Z,2.72
2022-08-29T17:46:39.919Z,2.97
2022-08-29T17:49:45.165Z,3.22
2022-08-29T17:52:50.364Z,3.28
2022-08-29T17:55:55.594Z,2.72
2022-08-29T17:59:05.908Z,2.90
2022-08-29T18:02:13.734Z,2.65
2022-08-29T18:05:18.742Z,2.88
2022-08-29T18:08:23.616Z,2.95
2022-08-29T18:11:28.940Z,3.13
2022-08-29T18:14:34.343Z,3.22
2022-08-29T18:17:41.614Z,3.58
2022-08-29T18:20:46.495Z,2.70
2022-08-29T18:23:53.640Z,2.85
2022-08-29T18:26:58.799Z,3.05
2022-08-29T18:30:04.529Z,3.70
2022-08-29T18:33:13.166Z,3.00
2022-08-29T18:36:18.598Z,3.33
2022-08-29T18:39:25.382Z,3.15
2022-08-29T18:42:40.411Z,3.20
2022-08-29T18:45:47.998Z,2.92
2022-08-29T18:48:55.119Z,3.20
2022-08-29T18:51:59.875Z,3.00
2022-08-29T18:55:05.183Z,2.90
2022-08-29T18:58:10.643Z,3.10
2022-08-29T19:01:26.918Z,3.10
2022-08-29T19:04:34.852Z,2.78
2022-08-29T19:07:40.354Z,2.95
2022-08-29T19:10:47.118Z,2.80
2022-08-29T19:13:52.990Z,2.88
2022-08-29T19:17:03.277Z,3.08
2022-08-29T19:20:29.492Z,3.00
2022-08-29T19:23:36.729Z,3.30
2022-08-29T19:26:41.814Z,2.85
2022-08-29T19:29:48.618Z,3.00
2022-08-29T19:32:54.565Z,3.17
2022-08-29T19:36:01.168Z,3.50
2022-08-29T19:39:06.314Z,3.30
2022-08-29T19:42:16.805Z,2.92
2022-08-29T19:45:22.423Z,2.92
2022-08-29T19:48:27.784Z,3.50
2022-08-29T19:51:34.272Z,3.22
2022-08-29T19:54:41.116Z,3.20
2022-08-29T19:57:51.937Z,3.20
2022-08-29T20:00:56.991Z,3.15
2022-08-29T20:04:02.090Z,3.25
2022-08-29T20:07:08.536Z,3.33
2022-08-29T20:10:15.052Z,3.00
2022-08-29T20:13:20.754Z,3.22
2022-08-29T20:16:28.757Z,3.70
2022-08-29T20:19:33.726Z,3.28
2022-08-29T20:22:41.674Z,2.72
2022-08-29T20:25:48.021Z,3.13
2022-08-29T20:28:54.597Z,3.15
2022-08-29T20:32:00.786Z,3.20
2022-08-29T20:35:06.156Z,2.80
2022-08-29T20:38:11.784Z,3.60
2022-08-29T20:41:21.305Z,3.03
2022-08-29T20:44:30.217Z,3.42
2022-08-29T20:47:38.784Z,3.63
2022-08-29T20:50:43.509Z,3.35
2022-08-29T20:53:50.439Z,3.75
2022-08-29T20:56:56.991Z,3.55
2022-08-29T21:00:02.161Z,3.40
2022-08-29T21:03:23.513Z,3.25
2022-08-29T21:06:28.583Z,3.30
2022-08-29T21:09:35.845Z,3.35
2022-08-29T21:12:40.882Z,3.45
2022-08-29T21:15:46.586Z,3.42
2022-08-29T21:18:53.882Z,3.67
2022-08-29T21:21:59.944Z,3.55
2022-08-29T21:25:06.880Z,3.30
2022-08-29T21:28:13.972Z,3.28
2022-08-29T21:31:22.024Z,3.72
2022-08-29T21:34:27.779Z,3.58
2022-08-29T21:37:32.545Z,3.63
2022-08-29T21:40:44.055Z,3.80
2022-08-29T21:43:56.191Z,3.67
2022-08-29T21:47:01.596Z,3.90
2022-08-29T21:50:06.671Z,3.72
2022-08-29T21:53:15.046Z,3.42
2022-08-29T21:56:23.234Z,3.90
2022-08-29T21:59:28.385Z,3.15
2022-08-29T22:02:33.968Z,3.33
2022-08-29T22:05:43.054Z,3.65
2022-08-29T22:08:49.319Z,3.70
2022-08-29T22:11:56.348Z,3.40
2022-08-29T22:15:17.470Z,4.25
2022-08-29T22:18:22.892Z,3.72
2022-08-29T22:21:29.310Z,4.57
2022-08-29T22:24:34.655Z,3.90
2022-08-29T22:27:41.320Z,4.85
2022-08-29T22:30:46.299Z,3.72
2022-08-29T22:33:52.012Z,3.78
2022-08-29T22:36:57.159Z,4.03
2022-08-29T22:40:02.510Z,4.43
2022-08-29T22:43:08.698Z,4.57
2022-08-29T22:46:15.372Z,4.55
2022-08-29T22:49:19.977Z,4.20
2022-08-29T22:52:24.967Z,3.55
2022-08-29T22:55:32.670Z,4.32
2022-08-29T22:58:38.838Z,3.90
2022-08-29T23:01:45.866Z,4.05
2022-08-29T23:04:51.429Z,4.78
2022-08-29T23:07:57.538Z,3.95
2022-08-29T23:11:02.597Z,4.20
2022-08-29T23:14:12.592Z,4.10
2022-08-29T23:17:18.974Z,4.25
2022-08-29T23:20:23.873Z,3.50
2022-08-29T23:23:33.923Z,4.22
2022-08-29T23:26:39.229Z,4.15
2022-08-29T23:29:45.943Z,4.80
2022-08-29T23:32:51.163Z,4.70
2022-08-29T23:35:57.872Z,3.78
2022-08-29T23:39:02.954Z,4.00
2022-08-29T23:42:07.942Z,4.70
2022-08-29T23:45:14.921Z,4.47
2022-08-29T23:48:23.034Z,4.10
2022-08-29T23:51:31.455Z,4.53
2022-08-29T23:54:38.025Z,4.20
2022-08-29T23:57:43.543Z,3.92
